createdAt,value
2017-04-22T00:00:49.052Z,9.93
2017-04-22T00:01:49.577Z,9.89
2017-04-22T00:02:50.125Z,9.86
2017-04-22T00:03:50.634Z,9.84
2017-04-22T00:04:51.167Z,9.82
2017-04-22T00:05:51.708Z,9.80
2017-04-22T00:06:52.224Z,9.78
2017-04-22T00:07:52.764Z,9.73
2017-04-22T00:08:53.287Z,9.72
2017-04-22T00:09:53.814Z,9.69
2017-04-22T00:10:54.357Z,9.66
2017-04-22T00:11:54.876Z,9.64
2017-04-22T00:12:55.403Z,9.62
2017-04-22T00:13:55.928Z,9.60
2017-04-22T00:14:56.465Z,9.57
2017-04-22T00:15:56.989Z,9.55
2017-04-22T00:16:57.513Z,9.51
2017-04-22T00:17:58.064Z,9.47
2017-04-22T00:18:58.573Z,9.43
2017-04-22T00:19:59.108Z,9.40
2017-04-22T00:20:59.639Z,9.34
2017-04-22T00:22:00.168Z,9.32
2017-04-22T00:23:00.693Z,9.27
2017-04-22T00:24:01.221Z,9.23
2017-04-22T00:25:01.753Z,9.19
2017-04-22T00:26:02.300Z,9.16
2017-04-22T00:27:02.814Z,9.12
2017-04-22T00:28:03.350Z,9.09
2017-04-22T00:29:03.883Z,9.07
2017-04-22T00:30:04.409Z,9.02
2017-04-22T00:31:04.952Z,9.01
2017-04-22T00:32:05.470Z,8.98
2017-04-22T00:33:06.009Z,8.96
2017-04-22T00:34:06.529Z,8.93
2017-04-22T00:35:07.065Z,8.91
2017-04-22T00:36:07.597Z,8.89
2017-04-22T00:37:08.139Z,8.87
2017-04-22T00:38:08.656Z,8.89
2017-04-22T00:39:09.188Z,8.89
2017-04-22T00:40:09.714Z,8.87
2017-04-22T00:41:10.245Z,8.86
2017-04-22T00:42:10.775Z,8.83
2017-04-22T00:43:11.305Z,8.83
2017-04-22T00:44:11.832Z,8.80
2017-04-22T00:45:12.366Z,8.80
2017-04-22T00:46:13.040Z,8.79
2017-04-22T00:47:13.421Z,8.76
2017-04-22T00:48:13.954Z,8.75
2017-04-22T00:49:14.483Z,8.72
2017-04-22T00:50:15.008Z,8.72
2017-04-22T00:51:15.545Z,8.72
2017-04-22T00:52:16.069Z,8.69
2017-04-22T00:53:16.608Z,8.69
2017-04-22T00:54:17.129Z,8.69
2017-04-22T00:55:17.664Z,8.69
2017-04-22T00:56:18.197Z,8.71
2017-04-22T00:57:18.865Z,8.71
2017-04-22T00:58:19.282Z,8.69
2017-04-22T00:59:19.779Z,8.67
2017-04-22T01:00:20.457Z,8.67
2017-04-22T01:01:20.994Z,8.65
2017-04-22T01:02:21.524Z,8.62
2017-04-22T01:03:21.899Z,8.62
2017-04-22T01:04:22.428Z,8.64
2017-04-22T01:05:22.959Z,8.61
2017-04-22T01:06:23.631Z,8.61
2017-04-22T01:07:24.016Z,8.61
2017-04-22T01:08:24.547Z,8.61
2017-04-22T01:09:25.079Z,8.58
2017-04-22T01:10:25.626Z,8.57
2017-04-22T01:11:26.145Z,8.56
2017-04-22T01:12:26.674Z,8.56
2017-04-22T01:13:27.208Z,8.53
2017-04-22T01:14:27.735Z,8.49
2017-04-22T01:15:28.271Z,8.49
2017-04-22T01:16:28.794Z,8.47
2017-04-22T01:17:29.330Z,8.46
2017-04-22T01:18:29.855Z,8.47
2017-04-22T01:19:30.387Z,8.46
2017-04-22T01:20:31.061Z,8.46
2017-04-22T01:21:31.442Z,8.45
2017-04-22T01:22:31.970Z,8.45
2017-04-22T01:23:32.500Z,8.43
2017-04-22T01:24:33.030Z,8.43
2017-04-22T01:25:33.565Z,8.43
2017-04-22T01:26:34.090Z,8.43
2017-04-22T01:27:34.621Z,8.42
2017-04-22T01:28:35.153Z,8.38
2017-04-22T01:29:35.679Z,8.38
2017-04-22T01:30:36.204Z,8.35
2017-04-22T01:31:36.752Z,8.37
2017-04-22T01:32:37.417Z,8.35
2017-04-22T01:33:37.797Z,8.34
2017-04-22T01:34:38.325Z,8.34
2017-04-22T01:35:38.863Z,8.34
2017-04-22T01:36:39.388Z,8.34
2017-04-22T01:37:39.918Z,8.35
2017-04-22T01:38:40.463Z,8.35
2017-04-22T01:39:40.978Z,8.37
2017-04-22T01:40:41.660Z,8.37
2017-04-22T01:41:42.045Z,8.38
2017-04-22T01:42:42.570Z,8.38
2017-04-22T01:43:43.105Z,8.38
2017-04-22T01:44:43.634Z,8.38
2017-04-22T01:45:44.166Z,8.39
2017-04-22T01:46:44.694Z,8.42
2017-04-22T01:47:45.222Z,8.42
2017-04-22T01:48:45.781Z,8.42
2017-04-22T01:49:46.279Z,8.39
2017-04-22T01:50:46.965Z,8.43
2017-04-22T01:51:47.356Z,8.45
2017-04-22T01:52:47.881Z,8.46
2017-04-22T01:53:48.416Z,8.46
2017-04-22T01:54:48.955Z,8.47
2017-04-22T01:55:49.488Z,8.46
2017-04-22T01:56:50.005Z,8.46
2017-04-22T01:57:50.528Z,8.46
2017-04-22T01:58:51.208Z,8.47
2017-04-22T01:59:51.590Z,8.49
2017-04-22T02:00:52.265Z,8.49
2017-04-22T02:01:52.645Z,8.47
2017-04-22T02:02:53.173Z,8.42
2017-04-22T02:03:53.722Z,8.35
2017-04-22T02:04:54.241Z,8.30
2017-04-22T02:05:54.755Z,8.26
2017-04-22T02:06:55.285Z,8.22
2017-04-22T02:07:55.812Z,8.16
2017-04-22T02:08:56.350Z,8.11
2017-04-22T02:09:56.877Z,8.06
2017-04-22T02:10:57.408Z,8.02
2017-04-22T02:11:57.941Z,7.99
2017-04-22T02:12:58.483Z,7.95
2017-04-22T02:13:58.996Z,7.95
2017-04-22T02:14:59.525Z,7.90
2017-04-22T02:16:00.056Z,7.86
2017-04-22T02:17:00.579Z,7.83
2017-04-22T02:18:01.111Z,7.76
2017-04-22T02:19:01.787Z,7.67
2017-04-22T02:20:02.182Z,7.63
2017-04-22T02:21:02.694Z,7.56
2017-04-22T02:22:03.222Z,7.49
2017-04-22T02:23:03.903Z,7.48
2017-04-22T02:24:04.278Z,7.45
2017-04-22T02:25:04.956Z,7.44
2017-04-22T02:26:05.336Z,7.38
2017-04-22T02:27:05.869Z,7.35
2017-04-22T02:28:06.395Z,7.29
2017-04-22T02:29:06.927Z,7.18
2017-04-22T02:30:07.457Z,7.12
2017-04-22T02:31:08.142Z,7.07
2017-04-22T02:32:08.523Z,7.04
2017-04-22T02:33:09.210Z,7.00
2017-04-22T02:34:09.590Z,7.00
2017-04-22T02:35:10.125Z,6.93
2017-04-22T02:36:10.655Z,6.86
2017-04-22T02:37:11.332Z,6.78
2017-04-22T02:38:11.713Z,6.74
2017-04-22T02:39:12.241Z,6.71
2017-04-22T02:40:12.770Z,6.68
2017-04-22T02:41:13.297Z,6.64
2017-04-22T02:42:13.828Z,6.60
2017-04-22T02:43:14.354Z,6.56
2017-04-22T02:44:14.890Z,6.55
2017-04-22T02:45:15.414Z,6.49
2017-04-22T02:46:15.942Z,6.47
2017-04-22T02:47:16.476Z,6.44
2017-04-22T02:48:17.001Z,6.41
2017-04-22T02:49:17.528Z,6.41
2017-04-22T02:50:18.059Z,6.38
2017-04-22T02:51:18.735Z,6.38
2017-04-22T02:52:19.119Z,6.37
2017-04-22T02:53:19.644Z,6.36
2017-04-22T02:54:20.182Z,6.34
2017-04-22T02:55:23.705Z,6.34
2017-04-22T02:56:21.233Z,6.34
2017-04-22T02:57:21.779Z,6.34
2017-04-22T02:58:22.305Z,6.31
2017-04-22T02:59:22.842Z,6.31
2017-04-22T03:00:23.355Z,6.31
2017-04-22T03:01:23.881Z,6.31
2017-04-22T03:02:24.409Z,6.30
2017-04-22T03:03:24.936Z,6.30
2017-04-22T03:04:25.461Z,6.30
2017-04-22T03:05:25.992Z,6.29
2017-04-22T03:06:26.518Z,6.30
2017-04-22T03:07:27.048Z,6.27
2017-04-22T03:08:27.579Z,6.29
2017-04-22T03:09:28.108Z,6.27
2017-04-22T03:10:28.635Z,6.26
2017-04-22T03:11:29.168Z,6.26
2017-04-22T03:12:29.695Z,6.27
2017-04-22T03:13:30.230Z,6.29
2017-04-22T03:14:30.762Z,6.27
2017-04-22T03:15:31.444Z,6.29
2017-04-22T03:16:31.829Z,6.27
2017-04-22T03:17:32.361Z,6.26
2017-04-22T03:18:32.897Z,6.26
2017-04-22T03:19:33.567Z,6.25
2017-04-22T03:20:33.952Z,6.23
2017-04-22T03:21:34.479Z,6.23
2017-04-22T03:22:35.006Z,6.23
2017-04-22T03:23:35.686Z,6.25
2017-04-22T03:24:36.068Z,6.26
2017-04-22T03:25:36.597Z,6.26
2017-04-22T03:26:37.133Z,6.25
2017-04-22T03:27:37.656Z,6.23
2017-04-22T03:28:38.187Z,6.25
2017-04-22T03:29:38.749Z,6.23
2017-04-22T03:30:39.242Z,6.25
2017-04-22T03:31:39.919Z,6.22
2017-04-22T03:32:40.303Z,6.25
2017-04-22T03:33:40.979Z,6.23
2017-04-22T03:34:41.357Z,6.23
2017-04-22T03:35:41.894Z,6.23
2017-04-22T03:36:42.418Z,6.20
2017-04-22T03:37:42.941Z,6.20
2017-04-22T03:38:43.476Z,6.20
2017-04-22T03:39:44.016Z,6.22
2017-04-22T03:40:44.530Z,6.19
2017-04-22T03:41:45.208Z,6.22
2017-04-22T03:42:45.595Z,6.23
2017-04-22T03:43:46.115Z,6.22
2017-04-22T03:44:46.647Z,6.22
2017-04-22T03:45:47.176Z,6.22
2017-04-22T03:46:47.703Z,6.20
2017-04-22T03:47:48.240Z,6.22
2017-04-22T03:48:48.764Z,6.19
2017-04-22T03:49:49.300Z,6.22
2017-04-22T03:50:49.821Z,6.20
2017-04-22T03:51:50.364Z,6.20
2017-04-22T03:52:50.880Z,6.20
2017-04-22T03:53:51.407Z,6.23
2017-04-22T03:54:51.972Z,6.23
2017-04-22T03:55:52.467Z,6.25
2017-04-22T03:56:53.004Z,6.25
2017-04-22T03:57:53.532Z,6.23
2017-04-22T03:58:54.064Z,6.25
2017-04-22T03:59:54.606Z,6.22
2017-04-22T04:00:55.129Z,6.23
2017-04-22T04:01:55.659Z,6.23
2017-04-22T04:02:56.189Z,6.25
2017-04-22T04:03:56.869Z,6.23
2017-04-22T04:04:57.252Z,6.23
2017-04-22T04:05:57.780Z,6.25
2017-04-22T04:06:58.319Z,6.25
2017-04-22T04:07:58.842Z,6.26
2017-04-22T04:08:59.369Z,6.27
2017-04-22T04:09:59.899Z,6.27
2017-04-22T04:11:00.431Z,6.29
2017-04-22T04:12:00.990Z,6.30
2017-04-22T04:13:01.497Z,6.30
2017-04-22T04:14:02.018Z,6.31
2017-04-22T04:15:02.550Z,6.29
2017-04-22T04:16:03.075Z,6.29
2017-04-22T04:17:03.609Z,6.30
2017-04-22T04:18:04.149Z,6.30
2017-04-22T04:19:04.811Z,6.30
2017-04-22T04:20:05.196Z,6.31
2017-04-22T04:21:05.725Z,6.31
2017-04-22T04:22:06.254Z,6.30
2017-04-22T04:23:06.784Z,6.30
2017-04-22T04:24:07.467Z,6.30
2017-04-22T04:25:07.845Z,6.31
2017-04-22T04:26:08.372Z,6.30
2017-04-22T04:27:08.901Z,6.31
2017-04-22T04:28:09.427Z,6.29
2017-04-22T04:29:10.103Z,6.31
2017-04-22T04:30:10.485Z,6.31
2017-04-22T04:31:11.015Z,6.29
2017-04-22T04:32:11.543Z,6.29
2017-04-22T04:33:12.074Z,6.29
2017-04-22T04:34:12.604Z,6.29
2017-04-22T04:35:13.130Z,6.30
2017-04-22T04:36:13.656Z,6.31
2017-04-22T04:37:14.189Z,6.31
2017-04-22T04:38:14.725Z,6.31
2017-04-22T04:39:15.259Z,6.31
2017-04-22T04:40:15.793Z,6.34
2017-04-22T04:41:16.328Z,6.34
2017-04-22T04:42:16.855Z,6.36
2017-04-22T04:43:17.386Z,6.36
2017-04-22T04:44:18.061Z,6.36
2017-04-22T04:45:18.448Z,6.37
2017-04-22T04:46:19.121Z,6.37
2017-04-22T04:47:19.498Z,6.37
2017-04-22T04:48:20.031Z,6.38
2017-04-22T04:49:20.559Z,6.38
2017-04-22T04:50:21.088Z,6.38
2017-04-22T04:51:21.617Z,6.38
2017-04-22T04:52:22.152Z,6.38
2017-04-22T04:53:22.679Z,6.37
2017-04-22T04:54:23.231Z,6.40
2017-04-22T04:55:23.738Z,6.38
2017-04-22T04:56:24.279Z,6.37
2017-04-22T04:57:24.803Z,6.40
2017-04-22T04:58:25.348Z,6.40
2017-04-22T04:59:25.862Z,6.38
2017-04-22T05:00:26.416Z,6.37
2017-04-22T05:01:27.068Z,6.37
2017-04-22T05:02:27.454Z,6.38
2017-04-22T05:03:27.981Z,6.38
2017-04-22T05:04:28.514Z,6.37
2017-04-22T05:05:29.044Z,6.37
2017-04-22T05:06:29.585Z,6.37
2017-04-22T05:07:30.254Z,6.36
2017-04-22T05:08:30.643Z,6.36
2017-04-22T05:09:31.166Z,6.36
2017-04-22T05:10:31.691Z,6.36
2017-04-22T05:11:32.222Z,6.34
2017-04-22T05:12:32.746Z,6.33
2017-04-22T05:13:33.425Z,6.33
2017-04-22T05:14:33.815Z,6.31
2017-04-22T05:15:34.343Z,6.33
2017-04-22T05:16:34.877Z,6.34
2017-04-22T05:17:35.405Z,6.34
2017-04-22T05:18:36.082Z,6.33
2017-04-22T05:19:36.612Z,6.34
2017-04-22T05:20:37.005Z,6.34
2017-04-22T05:21:37.536Z,6.34
2017-04-22T05:22:38.065Z,6.34
2017-04-22T05:23:38.603Z,6.34
2017-04-22T05:24:39.127Z,6.36
2017-04-22T05:25:39.657Z,6.36
2017-04-22T05:26:40.182Z,6.37
2017-04-22T05:27:40.711Z,6.38
2017-04-22T05:28:41.277Z,6.38
2017-04-22T05:29:41.770Z,6.38
2017-04-22T05:30:42.324Z,6.40
2017-04-22T05:31:42.831Z,6.38
2017-04-22T05:32:43.364Z,6.41
2017-04-22T05:33:43.885Z,6.41
2017-04-22T05:34:44.430Z,6.41
2017-04-22T05:35:44.942Z,6.41
2017-04-22T05:36:45.474Z,6.41
2017-04-22T05:37:46.011Z,6.45
2017-04-22T05:38:46.534Z,6.44
2017-04-22T05:39:47.061Z,6.44
2017-04-22T05:40:47.588Z,6.45
2017-04-22T05:41:48.123Z,6.44
2017-04-22T05:42:48.671Z,6.45
2017-04-22T05:43:49.185Z,6.48
2017-04-22T05:44:49.721Z,6.48
2017-04-22T05:45:50.241Z,6.51
2017-04-22T05:46:50.769Z,6.51
2017-04-22T05:47:51.317Z,6.52
2017-04-22T05:48:51.829Z,6.55
2017-04-22T05:49:52.358Z,6.56
2017-04-22T05:50:52.891Z,6.57
2017-04-22T05:51:53.562Z,6.56
2017-04-22T05:52:53.946Z,6.55
2017-04-22T05:53:54.475Z,6.52
2017-04-22T05:54:55.008Z,6.55
2017-04-22T05:55:55.545Z,6.52
2017-04-22T05:56:56.065Z,6.55
2017-04-22T05:57:56.598Z,6.55
2017-04-22T05:58:57.137Z,6.56
2017-04-22T05:59:57.659Z,6.56
2017-04-22T06:00:58.192Z,6.57
2017-04-22T06:01:58.722Z,6.59
2017-04-22T06:02:59.254Z,6.60
2017-04-22T06:03:59.931Z,6.59
2017-04-22T06:05:00.319Z,6.59
2017-04-22T06:06:00.845Z,6.59
2017-04-22T06:07:01.388Z,6.60
2017-04-22T06:08:01.914Z,6.59
2017-04-22T06:09:02.438Z,6.57
2017-04-22T06:10:02.966Z,6.56
2017-04-22T06:11:03.647Z,6.56
2017-04-22T06:12:04.043Z,6.52
2017-04-22T06:13:04.562Z,6.49
2017-04-22T06:14:05.083Z,6.51
2017-04-22T06:15:05.763Z,6.49
2017-04-22T06:16:06.144Z,6.49
2017-04-22T06:17:06.670Z,6.48
2017-04-22T06:18:07.200Z,6.48
2017-04-22T06:19:07.729Z,6.47
2017-04-22T06:20:08.260Z,6.44
2017-04-22T06:21:08.791Z,6.45
2017-04-22T06:22:10.968Z,6.45
2017-04-22T06:23:09.845Z,6.44
2017-04-22T06:24:10.382Z,6.41
2017-04-22T06:25:10.907Z,6.38
2017-04-22T06:26:11.442Z,6.40
2017-04-22T06:27:11.969Z,6.41
2017-04-22T06:28:12.500Z,6.41
2017-04-22T06:29:13.028Z,6.41
2017-04-22T06:30:13.556Z,6.43
2017-04-22T06:31:14.233Z,6.43
2017-04-22T06:32:14.611Z,6.41
2017-04-22T06:33:15.150Z,6.43
2017-04-22T06:34:15.690Z,6.40
2017-04-22T06:35:16.199Z,6.44
2017-04-22T06:36:16.731Z,6.45
2017-04-22T06:37:17.256Z,6.48
2017-04-22T06:38:17.793Z,6.49
2017-04-22T06:39:18.319Z,6.48
2017-04-22T06:40:18.845Z,6.49
2017-04-22T06:41:19.411Z,6.51
2017-04-22T06:42:19.909Z,6.56
2017-04-22T06:43:20.589Z,6.57
2017-04-22T06:44:20.979Z,6.59
2017-04-22T06:45:21.658Z,6.63
2017-04-22T06:46:22.045Z,6.78
2017-04-22T06:47:22.724Z,6.94
2017-04-22T06:48:23.255Z,7.08
2017-04-22T06:49:23.648Z,7.19
2017-04-22T06:50:24.167Z,7.19
2017-04-22T06:51:24.705Z,7.15
2017-04-22T06:52:25.369Z,7.13
2017-04-22T06:53:25.748Z,7.13
2017-04-22T06:54:26.277Z,7.11
2017-04-22T06:55:26.806Z,7.09
2017-04-22T06:56:27.337Z,7.05
2017-04-22T06:57:27.869Z,6.94
2017-04-22T06:58:28.398Z,6.82
2017-04-22T06:59:28.922Z,6.84
2017-04-22T07:00:29.450Z,6.78
2017-04-22T07:01:30.130Z,6.75
2017-04-22T07:02:30.514Z,6.74
2017-04-22T07:03:31.191Z,6.72
2017-04-22T07:04:31.569Z,6.70
2017-04-22T07:05:32.103Z,6.67
2017-04-22T07:06:32.634Z,6.63
2017-04-22T07:07:33.311Z,6.63
2017-04-22T07:08:33.688Z,6.60
2017-04-22T07:09:34.241Z,6.60
2017-04-22T07:10:34.748Z,6.59
2017-04-22T07:11:35.278Z,6.61
2017-04-22T07:12:35.811Z,6.61
2017-04-22T07:13:36.337Z,6.64
2017-04-22T07:14:36.865Z,6.67
2017-04-22T07:15:37.391Z,6.72
2017-04-22T07:16:37.921Z,6.79
2017-04-22T07:17:38.447Z,6.87
2017-04-22T07:18:38.979Z,6.97
2017-04-22T07:19:39.513Z,7.05
2017-04-22T07:20:40.040Z,7.24
2017-04-22T07:21:40.573Z,7.33
2017-04-22T07:22:41.105Z,7.33
2017-04-22T07:23:41.781Z,7.31
2017-04-22T07:24:42.163Z,7.31
2017-04-22T07:25:42.845Z,7.30
2017-04-22T07:26:43.231Z,7.31
2017-04-22T07:27:43.765Z,7.31
2017-04-22T07:28:44.295Z,7.31
2017-04-22T07:29:44.831Z,7.23
2017-04-22T07:30:45.362Z,7.12
2017-04-22T07:31:45.890Z,7.07
2017-04-22T07:32:46.418Z,7.09
2017-04-22T07:33:46.948Z,7.12
2017-04-22T07:34:47.480Z,7.09
2017-04-22T07:35:48.009Z,7.16
2017-04-22T07:36:48.540Z,7.18
2017-04-22T07:37:49.074Z,7.26
2017-04-22T07:38:49.601Z,7.27
2017-04-22T07:39:50.278Z,7.30
2017-04-22T07:40:50.660Z,7.37
2017-04-22T07:41:51.186Z,7.34
2017-04-22T07:42:51.714Z,7.27
2017-04-22T07:43:52.248Z,7.27
2017-04-22T07:44:52.782Z,7.26
2017-04-22T07:45:53.451Z,7.23
2017-04-22T07:46:53.834Z,7.26
2017-04-22T07:47:54.361Z,7.30
2017-04-22T07:48:54.891Z,7.48
2017-04-22T07:49:55.419Z,7.44
2017-04-22T07:50:55.950Z,7.60
2017-04-22T07:51:56.487Z,7.75
2017-04-22T07:52:57.010Z,7.86
2017-04-22T07:53:57.537Z,7.98
2017-04-22T07:54:58.073Z,8.16
2017-04-22T07:55:58.744Z,8.31
2017-04-22T07:56:59.149Z,8.23
2017-04-22T07:57:59.652Z,8.12
2017-04-22T07:59:00.187Z,8.08
2017-04-22T08:00:00.709Z,8.11
2017-04-22T08:01:01.240Z,8.04
2017-04-22T08:02:01.768Z,8.01
2017-04-22T08:03:02.302Z,7.81
2017-04-22T08:04:02.841Z,7.71
2017-04-22T08:05:03.360Z,7.71
2017-04-22T08:06:04.042Z,7.75
2017-04-22T08:07:04.424Z,7.78
2017-04-22T08:08:04.953Z,7.85
2017-04-22T08:09:05.488Z,8.01
2017-04-22T08:10:06.038Z,8.05
2017-04-22T08:11:06.556Z,7.98
2017-04-22T08:12:07.235Z,7.98
2017-04-22T08:13:07.612Z,7.93
2017-04-22T08:14:08.142Z,7.85
2017-04-22T08:15:08.672Z,7.75
2017-04-22T08:16:09.204Z,7.64
2017-04-22T08:17:09.741Z,7.67
2017-04-22T08:18:10.269Z,7.60
2017-04-22T08:19:10.803Z,7.56
2017-04-22T08:20:11.344Z,7.53
2017-04-22T08:21:12.007Z,7.55
2017-04-22T08:22:12.539Z,7.59
2017-04-22T08:23:12.919Z,7.56
2017-04-22T08:24:13.449Z,7.59
2017-04-22T08:25:13.976Z,7.52
2017-04-22T08:26:14.508Z,7.45
2017-04-22T08:27:15.040Z,7.29
2017-04-22T08:28:15.570Z,7.23
2017-04-22T08:29:16.111Z,7.19
2017-04-22T08:30:16.636Z,7.29
2017-04-22T08:31:17.163Z,7.51
2017-04-22T08:32:17.692Z,7.64
2017-04-22T08:33:18.223Z,7.76
2017-04-22T08:34:18.752Z,7.92
2017-04-22T08:35:19.282Z,7.82
2017-04-22T08:36:19.832Z,7.81
2017-04-22T08:37:20.343Z,7.81
2017-04-22T08:38:21.021Z,7.82
2017-04-22T08:39:21.408Z,7.93
2017-04-22T08:40:22.081Z,8.06
2017-04-22T08:41:22.466Z,8.28
2017-04-22T08:42:23.000Z,8.50
2017-04-22T08:43:23.672Z,8.89
2017-04-22T08:44:24.049Z,8.91
2017-04-22T08:45:24.578Z,8.93
2017-04-22T08:46:25.104Z,9.11
2017-04-22T08:47:25.632Z,9.02
2017-04-22T08:48:26.167Z,8.85
2017-04-22T08:49:26.700Z,8.75
2017-04-22T08:50:27.230Z,8.53
2017-04-22T08:51:27.767Z,8.46
2017-04-22T08:52:28.294Z,8.37
2017-04-22T08:53:28.827Z,8.19
2017-04-22T08:54:29.359Z,8.22
2017-04-22T08:55:29.895Z,8.16
2017-04-22T08:56:30.418Z,8.09
2017-04-22T08:57:30.956Z,8.09
2017-04-22T08:58:31.631Z,8.06
2017-04-22T08:59:32.012Z,8.11
2017-04-22T09:00:32.691Z,8.19
2017-04-22T09:01:33.069Z,8.17
2017-04-22T09:02:33.749Z,8.19
2017-04-22T09:03:34.128Z,8.16
2017-04-22T09:04:34.656Z,8.06
2017-04-22T09:05:35.192Z,8.28
2017-04-22T09:06:35.717Z,8.65
2017-04-22T09:07:36.399Z,8.87
2017-04-22T09:08:36.782Z,8.97
2017-04-22T09:09:37.310Z,8.74
2017-04-22T09:10:37.991Z,8.68
2017-04-22T09:11:38.373Z,8.71
2017-04-22T09:12:38.929Z,8.67
2017-04-22T09:13:39.437Z,8.65
2017-04-22T09:14:39.969Z,8.74
2017-04-22T09:15:40.510Z,8.65
2017-04-22T09:16:41.023Z,8.54
2017-04-22T09:17:41.579Z,8.47
2017-04-22T09:18:42.081Z,8.45
2017-04-22T09:19:42.765Z,8.31
2017-04-22T09:20:43.297Z,8.28
2017-04-22T09:21:43.674Z,8.38
2017-04-22T09:22:44.243Z,8.43
2017-04-22T09:23:44.739Z,8.49
2017-04-22T09:24:45.420Z,8.51
2017-04-22T09:25:45.945Z,8.65
2017-04-22T09:26:46.323Z,8.69
2017-04-22T09:27:46.857Z,8.61
2017-04-22T09:28:47.540Z,8.54
2017-04-22T09:29:47.918Z,8.39
2017-04-22T09:30:48.453Z,8.34
2017-04-22T09:31:48.982Z,8.37
2017-04-22T09:32:49.515Z,8.35
2017-04-22T09:33:50.052Z,8.35
2017-04-22T09:34:50.581Z,8.35
2017-04-22T09:35:51.116Z,8.38
2017-04-22T09:36:51.645Z,8.49
2017-04-22T09:37:52.174Z,8.50
2017-04-22T09:38:52.703Z,8.56
2017-04-22T09:39:53.232Z,8.50
2017-04-22T09:40:53.757Z,8.51
2017-04-22T09:41:54.294Z,8.53
2017-04-22T09:42:54.818Z,8.50
2017-04-22T09:43:55.347Z,8.37
2017-04-22T09:44:55.877Z,8.34
2017-04-22T09:45:56.558Z,8.39
2017-04-22T09:46:56.951Z,8.23
2017-04-22T09:47:57.612Z,8.19
2017-04-22T09:48:58.013Z,8.19
2017-04-22T09:49:58.525Z,8.34
2017-04-22T09:50:59.065Z,8.50
2017-04-22T09:51:59.734Z,8.61
2017-04-22T09:53:00.117Z,8.87
2017-04-22T09:54:00.646Z,9.02
2017-04-22T09:55:01.176Z,9.18
2017-04-22T09:56:01.707Z,9.28
2017-04-22T09:57:02.240Z,9.15
2017-04-22T09:58:02.761Z,9.15
2017-04-22T09:59:03.289Z,9.13
2017-04-22T10:01:04.351Z,9.25
2017-04-22T10:02:05.027Z,9.30
2017-04-22T10:03:05.408Z,9.50
2017-04-22T10:04:05.942Z,9.55
2017-04-22T10:05:06.463Z,9.44
2017-04-22T10:06:06.993Z,9.36
2017-04-22T10:07:07.671Z,9.31
2017-04-22T10:08:08.050Z,9.20
2017-04-22T10:09:08.594Z,9.15
2017-04-22T10:10:09.117Z,8.93
2017-04-22T10:11:09.647Z,8.74
2017-04-22T10:12:10.182Z,8.71
2017-04-22T10:13:10.706Z,8.82
2017-04-22T10:14:11.248Z,8.74
2017-04-22T10:15:11.773Z,8.82
2017-04-22T10:16:12.314Z,8.96
2017-04-22T10:17:12.848Z,9.09
2017-04-22T10:18:13.377Z,9.11
2017-04-22T10:19:13.909Z,9.08
2017-04-22T10:20:14.438Z,9.11
2017-04-22T10:21:14.963Z,9.00
2017-04-22T10:22:15.491Z,8.79
2017-04-22T10:23:16.168Z,8.69
2017-04-22T10:24:16.547Z,8.57
2017-04-22T10:25:17.076Z,8.56
2017-04-22T10:26:17.604Z,8.58
2017-04-22T10:27:18.136Z,8.58
2017-04-22T10:28:18.664Z,8.60
2017-04-22T10:29:19.193Z,8.58
2017-04-22T10:30:19.718Z,8.57
2017-04-22T10:31:20.248Z,8.83
2017-04-22T10:32:20.781Z,9.04
2017-04-22T10:33:21.323Z,9.22
2017-04-22T10:34:21.840Z,9.28
2017-04-22T10:35:22.371Z,9.22
2017-04-22T10:36:22.902Z,9.05
2017-04-22T10:37:23.445Z,9.05
2017-04-22T10:38:23.967Z,9.07
2017-04-22T10:39:24.489Z,9.20
2017-04-22T10:40:25.028Z,9.34
2017-04-22T10:41:25.559Z,9.30
2017-04-22T10:42:26.081Z,9.32
2017-04-22T10:44:27.146Z,9.30
2017-04-22T10:45:27.669Z,9.27
2017-04-22T10:46:28.199Z,9.34
2017-04-22T10:47:28.726Z,9.25
2017-04-22T10:48:29.258Z,9.31
2017-04-22T10:49:29.792Z,9.23
2017-04-22T10:50:30.317Z,9.22
2017-04-22T10:51:30.988Z,9.25
2017-04-22T10:52:31.375Z,9.27
2017-04-22T10:53:31.903Z,9.15
2017-04-22T10:54:32.432Z,9.07
2017-04-22T10:55:33.111Z,9.22
2017-04-22T10:56:33.495Z,9.42
2017-04-22T10:57:34.041Z,9.51
2017-04-22T10:58:34.572Z,9.62
2017-04-22T10:59:35.247Z,9.80
2017-04-22T11:00:35.633Z,9.79
2017-04-22T11:01:36.310Z,9.90
2017-04-22T11:02:36.690Z,9.80
2017-04-22T11:03:37.365Z,9.64
2017-04-22T11:04:37.747Z,9.53
2017-04-22T11:05:38.271Z,9.40
2017-04-22T11:06:38.809Z,9.28
2017-04-22T11:07:39.485Z,9.18
2017-04-22T11:08:39.870Z,9.27
2017-04-22T11:09:40.393Z,9.13
2017-04-22T11:10:40.921Z,9.13
2017-04-22T11:11:41.450Z,9.11
2017-04-22T11:12:41.976Z,9.07
2017-04-22T11:13:42.507Z,9.07
2017-04-22T11:14:43.038Z,9.07
2017-04-22T11:15:43.718Z,8.97
2017-04-22T11:16:44.100Z,9.00
2017-04-22T11:17:44.627Z,9.07
2017-04-22T11:18:45.155Z,9.11
2017-04-22T11:19:45.835Z,9.12
2017-04-22T11:20:46.220Z,9.12
2017-04-22T11:21:46.752Z,9.11
2017-04-22T11:22:47.277Z,9.15
2017-04-22T11:23:47.820Z,9.28
2017-04-22T11:24:48.336Z,9.32
2017-04-22T11:25:49.014Z,9.25
2017-04-22T11:26:49.393Z,9.15
2017-04-22T11:27:49.931Z,9.12
2017-04-22T11:28:50.450Z,9.11
2017-04-22T11:29:50.975Z,8.98
2017-04-22T11:30:51.509Z,9.00
2017-04-22T11:31:52.031Z,9.08
2017-04-22T11:32:52.564Z,9.16
2017-04-22T11:33:53.094Z,9.23
2017-04-22T11:34:53.625Z,9.22
2017-04-22T11:35:54.188Z,9.07
2017-04-22T11:36:54.683Z,9.07
2017-04-22T11:37:55.219Z,9.27
2017-04-22T11:38:55.753Z,9.58
2017-04-22T11:39:56.286Z,9.66
2017-04-22T11:40:56.814Z,9.95
2017-04-22T11:41:57.354Z,10.17
2017-04-22T11:42:57.876Z,10.38
2017-04-22T11:43:58.430Z,10.17
2017-04-22T11:44:58.935Z,10.31
2017-04-22T11:45:59.608Z,10.49
2017-04-22T11:47:00.136Z,10.35
2017-04-22T11:48:00.516Z,10.21
2017-04-22T11:49:01.052Z,10.18
2017-04-22T11:50:01.736Z,10.35
2017-04-22T11:51:02.113Z,10.54
2017-04-22T11:52:02.640Z,10.56
2017-04-22T11:53:03.171Z,10.52
2017-04-22T11:54:03.848Z,10.36
2017-04-22T11:55:04.226Z,10.27
2017-04-22T11:56:04.755Z,10.06
2017-04-22T11:57:05.292Z,9.80
2017-04-22T11:58:05.820Z,9.73
2017-04-22T11:59:06.347Z,9.64
2017-04-22T12:00:06.875Z,9.58
2017-04-22T12:01:07.403Z,9.64
2017-04-22T12:02:08.087Z,9.64
2017-04-22T12:03:08.467Z,9.66
2017-04-22T12:04:08.995Z,9.61
2017-04-22T12:05:09.671Z,9.60
2017-04-22T12:06:10.053Z,9.55
2017-04-22T12:07:10.581Z,9.55
2017-04-22T12:08:11.119Z,9.38
2017-04-22T12:09:11.651Z,9.25
2017-04-22T12:10:12.171Z,9.11
2017-04-22T12:11:12.842Z,9.04
2017-04-22T12:12:13.230Z,9.04
2017-04-22T12:13:13.759Z,9.07
2017-04-22T12:14:14.298Z,8.93
2017-04-22T12:15:14.819Z,8.87
2017-04-22T12:16:15.351Z,8.89
2017-04-22T12:17:15.882Z,8.89
2017-04-22T12:18:16.410Z,8.89
2017-04-22T12:19:16.944Z,8.83
2017-04-22T12:20:17.471Z,8.76
2017-04-22T12:21:18.007Z,8.72
2017-04-22T12:22:18.572Z,8.65
2017-04-22T12:23:19.075Z,8.61
2017-04-22T12:24:19.653Z,8.60
2017-04-22T12:25:20.137Z,8.60
2017-04-22T12:26:20.658Z,8.62
2017-04-22T12:27:21.336Z,8.65
2017-04-22T12:28:21.718Z,8.67
2017-04-22T12:29:22.245Z,8.67
2017-04-22T12:30:22.780Z,8.64
2017-04-22T12:31:23.308Z,8.58
2017-04-22T12:32:23.836Z,8.58
2017-04-22T12:33:24.365Z,8.54
2017-04-22T12:34:24.928Z,8.51
2017-04-22T12:35:25.426Z,8.46
2017-04-22T12:36:25.960Z,8.19
2017-04-22T12:37:26.484Z,7.98
2017-04-22T12:38:27.162Z,7.85
2017-04-22T12:39:27.545Z,7.74
2017-04-22T12:40:28.073Z,7.63
2017-04-22T12:41:28.752Z,7.56
2017-04-22T12:42:29.131Z,7.58
2017-04-22T12:43:29.665Z,7.42
2017-04-22T12:44:30.342Z,7.42
2017-04-22T12:45:30.726Z,7.48
2017-04-22T12:46:31.271Z,7.51
2017-04-22T12:47:31.781Z,7.56
2017-04-22T12:48:32.313Z,7.64
2017-04-22T12:49:32.839Z,7.74
2017-04-22T12:50:33.368Z,7.76
2017-04-22T12:51:33.901Z,7.89
2017-04-22T12:52:34.462Z,7.95
2017-04-22T12:53:34.962Z,7.89
2017-04-22T12:54:35.636Z,7.97
2017-04-22T12:55:36.021Z,8.08
2017-04-22T12:56:36.550Z,8.06
2017-04-22T12:57:37.085Z,8.16
2017-04-22T12:58:37.615Z,8.33
2017-04-22T12:59:38.143Z,8.38
2017-04-22T13:00:38.823Z,8.22
2017-04-22T13:01:39.203Z,8.16
2017-04-22T13:02:39.735Z,8.15
2017-04-22T13:03:40.272Z,8.22
2017-04-22T13:04:40.798Z,8.30
2017-04-22T13:05:41.330Z,8.42
2017-04-22T13:06:41.859Z,8.60
2017-04-22T13:07:42.536Z,8.68
2017-04-22T13:08:42.919Z,8.74
2017-04-22T13:09:43.460Z,8.64
2017-04-22T13:10:44.128Z,8.64
2017-04-22T13:11:44.510Z,8.53
2017-04-22T13:12:45.043Z,8.45
2017-04-22T13:13:45.569Z,8.42
2017-04-22T13:14:46.103Z,8.37
2017-04-22T13:15:46.632Z,8.50
2017-04-22T13:16:47.157Z,8.75
2017-04-22T13:17:47.685Z,9.11
2017-04-22T13:18:48.217Z,9.30
2017-04-22T13:19:48.744Z,9.34
2017-04-22T13:20:49.424Z,9.46
2017-04-22T13:21:49.804Z,9.68
2017-04-22T13:22:50.329Z,9.86
2017-04-22T13:23:50.867Z,10.00
2017-04-22T13:24:51.393Z,9.91
2017-04-22T13:25:52.072Z,9.78
2017-04-22T13:26:52.463Z,9.65